createdAt,value
2018-05-03T00:00:38.123Z,18.68
2018-05-03T00:04:40.613Z,18.69
2018-05-03T00:08:43.054Z,18.72
2018-05-03T00:12:45.522Z,18.70
2018-05-03T00:16:47.998Z,18.70
2018-05-03T00:20:51.504Z,18.69
2018-05-03T00:24:54.989Z,18.58
2018-05-03T00:28:58.427Z,18.45
2018-05-03T00:33:00.900Z,18.33
2018-05-03T00:37:04.300Z,18.31
2018-05-03T00:41:06.787Z,18.28
2018-05-03T00:45:09.231Z,18.23
2018-05-03T00:49:11.778Z,18.23
2018-05-03T00:53:14.228Z,18.16
2018-05-03T00:57:16.705Z,18.12
2018-05-03T01:01:20.154Z,18.16
2018-05-03T01:05:22.657Z,18.19
2018-05-03T01:09:26.064Z,18.20
2018-05-03T01:13:28.534Z,18.19
2018-05-03T01:17:31.009Z,18.20
2018-05-03T01:21:34.483Z,18.22
2018-05-03T01:25:36.929Z,18.19
2018-05-03T01:29:40.389Z,18.13
2018-05-03T01:33:43.795Z,18.11
2018-05-03T01:37:49.931Z,18.10
2018-05-03T01:41:54.411Z,18.09
2018-05-03T01:45:57.792Z,18.04
2018-05-03T01:50:00.277Z,18.01
2018-05-03T01:54:03.723Z,17.99
2018-05-03T01:58:08.155Z,17.98
2018-05-03T02:02:11.563Z,17.99
2018-05-03T02:06:14.037Z,17.98
2018-05-03T02:10:16.505Z,17.92
2018-05-03T02:14:20.982Z,17.87
2018-05-03T02:18:23.466Z,17.83
2018-05-03T02:22:27.925Z,17.77
2018-05-03T02:26:31.414Z,17.71
2018-05-03T02:30:39.441Z,17.72
2018-05-03T02:34:41.920Z,17.72
2018-05-03T03:52:53.301Z,17.26
2018-05-03T03:56:56.962Z,17.26
2018-05-03T04:01:08.462Z,17.24
2018-05-03T04:05:10.923Z,17.21
2018-05-03T05:23:19.880Z,17.96
2018-05-03T05:27:22.458Z,18.04
2018-05-03T05:31:25.088Z,18.14
2018-05-03T05:35:27.705Z,18.23
2018-05-03T05:39:30.284Z,18.31
2018-05-03T05:43:32.792Z,18.39
2018-05-03T05:47:35.370Z,18.47
2018-05-03T05:51:38.034Z,18.57
2018-05-03T05:55:40.659Z,18.67
2018-05-03T05:59:43.283Z,18.80
2018-05-03T06:03:45.955Z,18.89
2018-05-03T06:07:48.525Z,18.98
2018-05-03T06:11:51.163Z,19.10
2018-05-03T06:15:53.874Z,19.21
2018-05-03T06:19:56.518Z,19.34
2018-05-03T06:23:59.213Z,19.43
2018-05-03T06:28:01.762Z,19.55
2018-05-03T06:32:04.317Z,19.64
2018-05-03T06:36:06.919Z,19.75
2018-05-03T06:40:15.444Z,19.87
2018-05-03T06:44:18.052Z,19.97
2018-05-03T06:48:20.678Z,20.10
2018-05-03T06:52:23.235Z,20.21
2018-05-03T06:56:25.883Z,20.33
2018-05-03T07:04:37.394Z,20.57
2018-05-03T07:08:39.957Z,20.69
2018-05-03T07:12:42.577Z,20.85
2018-05-03T07:16:45.164Z,21.00
2018-05-03T07:20:47.693Z,21.09
2018-05-03T07:24:50.221Z,21.21
2018-05-03T07:28:52.763Z,21.34
2018-05-03T07:32:55.260Z,21.47
2018-05-03T07:36:57.776Z,21.59
2018-05-03T07:41:00.311Z,21.72
2018-05-03T07:45:02.818Z,21.86
2018-05-03T07:49:05.337Z,22.02
2018-05-03T07:53:07.814Z,22.10
2018-05-03T07:57:10.261Z,22.14
2018-05-03T08:01:12.831Z,22.19
2018-05-03T08:05:15.225Z,22.19
2018-05-03T08:09:17.691Z,22.27
2018-05-03T08:13:20.162Z,22.43
2018-05-03T08:17:22.638Z,22.53
2018-05-03T08:21:25.118Z,22.68
2018-05-03T08:25:27.614Z,22.81
2018-05-03T08:29:30.077Z,23.02
2018-05-03T08:33:32.552Z,23.18
2018-05-03T08:37:35.044Z,23.19
2018-05-03T08:41:37.496Z,23.25
2018-05-03T08:45:39.965Z,23.34
2018-05-03T08:49:42.443Z,23.42
2018-05-03T08:53:44.915Z,23.38
2018-05-03T08:57:47.370Z,23.41
2018-05-03T09:01:49.881Z,23.41
2018-05-03T09:05:52.344Z,23.46
2018-05-03T09:09:54.829Z,23.47
2018-05-03T09:13:57.309Z,23.58
2018-05-03T09:17:59.770Z,23.67
2018-05-03T09:22:02.239Z,23.72
2018-05-03T09:26:04.702Z,23.83
2018-05-03T09:30:07.179Z,23.97
2018-05-03T09:34:09.655Z,24.07
2018-05-03T09:38:12.135Z,24.18
2018-05-03T09:42:14.626Z,24.29
2018-05-03T09:46:17.113Z,24.38
2018-05-03T09:50:19.597Z,24.46
2018-05-03T09:58:30.988Z,24.64
2018-05-03T10:02:33.450Z,24.74
2018-05-03T10:06:35.919Z,24.89
2018-05-03T10:10:38.391Z,25.01
2018-05-03T10:14:40.951Z,25.11
2018-05-03T10:18:43.317Z,25.23
2018-05-03T10:22:45.821Z,25.20
2018-05-03T10:26:48.307Z,25.30
2018-05-03T10:30:51.752Z,25.37
2018-05-03T10:34:54.227Z,25.42
2018-05-03T10:38:58.342Z,25.48
2018-05-03T10:43:00.882Z,25.56
2018-05-03T10:47:03.396Z,25.70
2018-05-03T10:51:05.912Z,25.80
2018-05-03T10:55:08.441Z,25.73
2018-05-03T11:03:53.174Z,25.84
2018-05-03T11:07:55.631Z,25.97
2018-05-03T11:11:58.116Z,26.05
2018-05-03T11:16:00.596Z,26.18
2018-05-03T11:20:03.089Z,26.34
2018-05-03T11:24:05.579Z,26.36
2018-05-03T11:28:08.030Z,26.40
2018-05-03T11:32:10.506Z,26.31
2018-05-03T11:36:13.004Z,26.23
2018-05-03T11:40:15.451Z,26.33
2018-05-03T11:44:17.927Z,26.41
2018-05-03T11:48:20.411Z,26.58
2018-05-03T11:52:22.892Z,26.63
2018-05-03T11:56:25.380Z,26.58
2018-05-03T12:00:27.844Z,26.59
2018-05-03T12:04:30.321Z,26.70
2018-05-03T12:08:32.797Z,26.75
2018-05-03T12:12:35.296Z,26.85
2018-05-03T12:16:37.742Z,26.85
2018-05-03T12:20:40.221Z,26.93
2018-05-03T12:24:42.696Z,26.96
2018-05-03T12:28:45.156Z,26.83
2018-05-03T12:32:47.688Z,26.81
2018-05-03T12:36:50.110Z,26.94
2018-05-03T12:40:52.585Z,27.15
2018-05-03T12:44:55.071Z,27.32
2018-05-03T12:48:57.556Z,27.41
2018-05-03T12:53:00.002Z,27.36
2018-05-03T12:57:02.484Z,27.32
2018-05-03T13:01:04.971Z,27.17
2018-05-03T13:05:07.454Z,27.12
2018-05-03T13:09:09.932Z,26.99
2018-05-03T13:13:12.392Z,26.94
2018-05-03T13:17:14.875Z,26.96
2018-05-03T13:21:17.355Z,27.00
2018-05-03T13:25:19.858Z,27.02
2018-05-03T13:29:22.307Z,26.98
2018-05-03T13:33:24.793Z,26.91
2018-05-03T13:37:27.261Z,26.93
2018-05-03T13:41:30.774Z,26.94
2018-05-03T13:45:33.228Z,26.92
2018-05-03T13:49:35.717Z,26.90
2018-05-03T13:53:38.237Z,26.89
2018-05-03T13:57:40.722Z,26.92
2018-05-03T14:01:43.175Z,26.93
2018-05-03T14:05:45.648Z,27.01
2018-05-03T14:09:48.127Z,27.10
2018-05-03T14:13:50.681Z,27.17
2018-05-03T14:17:53.140Z,27.19
2018-05-03T14:21:55.850Z,27.19
2018-05-03T14:25:58.337Z,27.22
2018-05-03T14:30:00.791Z,27.34
2018-05-03T14:34:03.307Z,27.40
2018-05-03T14:38:05.787Z,27.44
2018-05-03T14:42:08.270Z,27.45
2018-05-03T14:46:10.764Z,27.41
2018-05-03T14:50:13.219Z,27.33
2018-05-03T14:54:15.718Z,27.24
2018-05-03T14:58:18.179Z,27.20
2018-05-03T15:02:20.631Z,27.26
2018-05-03T15:06:23.109Z,27.30
2018-05-03T15:10:25.589Z,27.37
2018-05-03T15:14:28.062Z,27.35
2018-05-03T15:18:30.603Z,27.30
2018-05-03T15:22:33.019Z,27.31
2018-05-03T15:26:35.474Z,27.35
2018-05-03T15:30:37.962Z,27.40
2018-05-03T15:34:40.438Z,27.43
2018-05-03T15:38:42.898Z,27.45
2018-05-03T15:42:45.382Z,27.48
2018-05-03T15:46:47.877Z,27.48
2018-05-03T15:50:51.354Z,27.44
2018-05-03T15:54:53.838Z,27.40
2018-05-03T15:58:56.316Z,27.35
2018-05-03T16:02:58.773Z,27.30
2018-05-03T16:07:01.260Z,27.27
2018-05-03T16:11:03.719Z,27.26
2018-05-03T16:15:06.204Z,27.23
2018-05-03T16:19:08.688Z,27.19
2018-05-03T16:23:11.176Z,27.16
2018-05-03T16:27:13.696Z,27.17
2018-05-03T16:31:16.147Z,27.17
2018-05-03T16:35:18.733Z,27.16
2018-05-03T16:39:21.176Z,27.17
2018-05-03T16:43:23.682Z,27.14
2018-05-03T16:47:26.170Z,27.09
2018-05-03T16:51:28.652Z,27.07
2018-05-03T16:55:31.135Z,27.05
2018-05-03T16:59:33.594Z,27.02
2018-05-03T17:03:36.068Z,26.98
2018-05-03T17:07:38.555Z,26.93
2018-05-03T17:11:41.027Z,26.89
2018-05-03T17:15:43.538Z,26.87
2018-05-03T17:19:46.031Z,26.83
2018-05-03T17:23:48.491Z,26.81
2018-05-03T17:27:50.997Z,26.75
2018-05-03T17:31:53.451Z,26.66
2018-05-03T17:35:55.931Z,26.55
2018-05-03T17:39:58.399Z,26.45
2018-05-03T17:44:00.879Z,26.37
2018-05-03T17:48:03.335Z,26.28
2018-05-03T17:52:05.808Z,26.23
2018-05-03T17:56:08.262Z,26.19
2018-05-03T18:00:10.746Z,26.14
2018-05-03T18:04:13.192Z,26.12
2018-05-03T18:08:15.671Z,26.08
2018-05-03T18:12:18.155Z,25.98
2018-05-03T18:16:20.696Z,25.81
2018-05-03T18:20:23.092Z,25.67
2018-05-03T18:24:25.636Z,25.56
2018-05-03T18:28:28.070Z,25.52
2018-05-03T18:32:30.559Z,25.46
2018-05-03T18:36:33.107Z,25.39
2018-05-03T18:40:35.599Z,25.31
2018-05-03T18:44:38.050Z,25.25
2018-05-03T18:48:40.549Z,25.19
2018-05-03T18:52:43.027Z,25.16
2018-05-03T18:56:45.479Z,25.12
2018-05-03T19:00:47.968Z,25.07
2018-05-03T19:04:50.452Z,25.01
2018-05-03T19:08:52.915Z,24.93
2018-05-03T19:12:55.459Z,24.86
2018-05-03T19:16:57.898Z,24.80
2018-05-03T19:21:00.390Z,24.68
2018-05-03T19:25:02.848Z,24.59
2018-05-03T19:29:05.332Z,24.54
2018-05-03T19:33:07.801Z,24.46
2018-05-03T19:37:10.290Z,24.40
2018-05-03T19:41:13.615Z,24.33
2018-05-03T19:45:16.107Z,24.21
2018-05-03T19:49:18.604Z,24.11
2018-05-03T19:53:21.096Z,24.04
2018-05-03T19:57:23.553Z,23.96
2018-05-03T20:01:26.040Z,23.92
2018-05-03T20:05:28.527Z,23.87
2018-05-03T20:09:30.971Z,23.79
2018-05-03T20:13:33.506Z,23.64
2018-05-03T20:17:35.960Z,23.54
2018-05-03T20:21:38.436Z,23.43
2018-05-03T20:25:40.926Z,23.35
2018-05-03T20:29:43.415Z,23.26
2018-05-03T20:33:45.874Z,23.18
2018-05-03T20:37:48.354Z,23.04
2018-05-03T20:41:50.832Z,22.90
2018-05-03T20:45:53.367Z,22.79
2018-05-03T20:49:55.803Z,22.68
2018-05-03T20:53:58.286Z,22.60
2018-05-03T20:58:00.752Z,22.53
2018-05-03T21:02:03.264Z,22.47
2018-05-03T21:06:05.737Z,22.41
2018-05-03T21:10:08.224Z,22.32
2018-05-03T21:14:11.151Z,22.25
2018-05-03T21:18:13.632Z,22.17
2018-05-03T21:22:16.115Z,22.07
2018-05-03T21:26:18.670Z,21.98
2018-05-03T21:30:21.071Z,21.87
2018-05-03T21:34:23.526Z,21.77
2018-05-03T21:38:26.044Z,21.69
2018-05-03T21:42:28.653Z,21.62
2018-05-03T21:46:31.138Z,21.55
2018-05-03T21:50:33.627Z,21.47
2018-05-03T21:54:36.074Z,21.41
2018-05-03T21:58:38.564Z,21.36
2018-05-03T22:02:41.054Z,21.24
2018-05-03T22:06:43.511Z,21.13
2018-05-03T22:10:46.003Z,21.09
2018-05-03T22:14:48.466Z,21.05
2018-05-03T22:18:50.950Z,21.00
2018-05-03T22:22:53.429Z,20.99
2018-05-03T22:26:55.915Z,20.96
2018-05-03T22:30:58.402Z,20.88
2018-05-03T22:35:00.921Z,20.85
2018-05-03T22:39:03.405Z,20.81
2018-05-03T22:43:06.123Z,20.76
2018-05-03T22:47:08.602Z,20.77
2018-05-03T22:51:11.081Z,20.73
2018-05-03T22:55:13.530Z,20.69
2018-05-03T22:59:16.019Z,20.67
2018-05-03T23:03:18.494Z,20.63
2018-05-03T23:07:20.971Z,20.60
2018-05-03T23:11:23.450Z,20.57
2018-05-03T23:15:25.936Z,20.57
2018-05-03T23:19:28.421Z,20.56
2018-05-03T23:23:30.906Z,20.55
2018-05-03T23:27:33.392Z,20.46
2018-05-03T23:31:35.882Z,20.37
2018-05-03T23:35:38.377Z,20.31
2018-05-03T23:39:40.876Z,20.30
2018-05-03T23:43:43.331Z,20.26
2018-05-03T23:47:45.828Z,20.18
2018-05-03T23:51:48.287Z,20.11
2018-05-03T23:55:50.813Z,20.06
2018-05-03T23:59:53.303Z,20.04
